createdAt,value
2019-04-10T00:01:17.286Z,79.62
2019-04-10T00:02:22.451Z,77.72
2019-04-10T00:03:32.961Z,83.78
2019-04-10T00:04:32.288Z,78.72
2019-04-10T00:05:36.720Z,82.78
2019-04-10T00:06:41.424Z,79.87
2019-04-10T00:07:45.891Z,76.75
2019-04-10T00:08:50.561Z,78.40
2019-04-10T00:09:55.131Z,79.72
2019-04-10T00:11:00.395Z,81.05
2019-04-10T00:12:05.922Z,78.42
2019-04-10T00:13:10.142Z,77.30
2019-04-10T00:14:14.306Z,79.67
2019-04-10T00:15:18.840Z,79.12
2019-04-10T00:16:24.370Z,78.57
2019-04-10T00:17:29.163Z,76.57
2019-04-10T00:18:33.819Z,78.87
2019-04-10T00:19:37.989Z,78.65
2019-04-10T00:20:42.686Z,80.83
2019-04-10T00:21:47.350Z,82.37
2019-04-10T00:22:51.342Z,82.42
2019-04-10T00:23:55.719Z,88.97
2019-04-10T00:25:00.151Z,82.72
2019-04-10T00:26:04.130Z,82.12
2019-04-10T00:27:08.268Z,82.15
2019-04-10T00:28:12.620Z,84.37
2019-04-10T00:29:16.721Z,79.47
2019-04-10T00:30:20.830Z,83.25
2019-04-10T00:31:26.267Z,88.55
2019-04-10T00:32:30.671Z,85.17
2019-04-10T00:33:34.893Z,78.87
2019-04-10T00:34:40.043Z,86.12
2019-04-10T00:35:43.983Z,79.65
2019-04-10T00:36:47.836Z,76.28
2019-04-10T00:37:53.345Z,78.72
2019-04-10T00:38:58.029Z,78.15
2019-04-10T00:40:03.348Z,82.70
2019-04-10T00:41:08.034Z,84.90
2019-04-10T00:42:12.829Z,79.77
2019-04-10T00:43:17.023Z,80.50
2019-04-10T00:44:21.614Z,82.00
2019-04-10T00:45:25.750Z,82.72
2019-04-10T00:46:30.438Z,83.60
2019-04-10T00:47:35.147Z,84.87
2019-04-10T00:48:39.778Z,82.22
2019-04-10T00:49:44.155Z,82.35
2019-04-10T00:50:48.777Z,83.82
2019-04-10T00:51:53.121Z,77.75
2019-04-10T00:52:58.751Z,78.95
2019-04-10T00:54:02.731Z,80.83
2019-04-10T00:55:07.802Z,80.20
2019-04-10T00:56:12.485Z,76.85
2019-04-10T00:57:17.015Z,77.40
2019-04-10T00:58:22.530Z,76.95
2019-04-10T00:59:26.886Z,78.65
2019-04-10T01:00:30.980Z,76.95
2019-04-10T01:01:36.141Z,82.90
2019-04-10T01:02:41.441Z,79.58
2019-04-10T01:03:48.143Z,88.67
2019-04-10T01:04:52.971Z,77.03
2019-04-10T01:05:57.630Z,78.90
2019-04-10T01:07:02.249Z,80.30
2019-04-10T01:08:06.733Z,84.97
2019-04-10T01:09:11.215Z,84.05
2019-04-10T01:10:15.899Z,81.47
2019-04-10T03:19:25.536Z,101.22
2019-04-10T03:20:30.061Z,97.85
2019-04-10T03:21:34.072Z,96.82
2019-04-10T03:22:38.257Z,98.87
2019-04-10T03:23:42.670Z,97.53
2019-04-10T03:24:46.974Z,101.50
2019-04-10T03:25:51.476Z,100.30
2019-04-10T03:26:56.200Z,98.27
2019-04-10T03:28:00.865Z,95.67
2019-04-10T03:29:05.399Z,93.65
2019-04-10T03:30:10.900Z,92.40
2019-04-10T03:31:15.935Z,95.05
2019-04-10T03:32:52.510Z,95.05
2019-04-10T03:34:19.273Z,98.95
2019-04-10T03:35:30.446Z,89.40
2019-04-10T03:36:40.102Z,93.27
2019-04-10T03:37:44.670Z,94.40
2019-04-10T03:38:57.750Z,96.70
2019-04-10T03:39:55.266Z,94.00
2019-04-10T03:40:59.832Z,89.97
2019-04-10T03:42:04.395Z,97.53
2019-04-10T03:43:08.504Z,95.95
2019-04-10T03:44:12.484Z,92.78
2019-04-10T03:45:16.744Z,93.40
2019-04-10T03:46:21.494Z,99.60
2019-04-10T03:47:25.379Z,90.50
2019-04-10T03:48:29.476Z,95.65
2019-04-10T03:49:33.937Z,98.72
2019-04-10T03:50:39.515Z,99.05
2019-04-10T03:51:45.002Z,100.35
2019-04-10T03:52:49.611Z,93.80
2019-04-10T03:53:54.239Z,96.15
2019-04-10T03:54:58.710Z,93.42
2019-04-10T03:56:02.725Z,94.97
2019-04-10T03:57:07.134Z,98.92
2019-04-10T03:58:11.832Z,97.80
2019-04-10T03:59:16.226Z,96.08
2019-04-10T04:00:20.990Z,97.02
2019-04-10T04:01:25.271Z,97.12
2019-04-10T04:02:29.488Z,96.25
2019-04-10T04:03:33.680Z,96.00
2019-04-10T04:04:37.779Z,94.00
2019-04-10T04:05:42.565Z,97.65
2019-04-10T04:06:46.762Z,100.58
2019-04-10T04:07:50.967Z,102.32
2019-04-10T04:09:06.697Z,94.17
2019-04-10T04:10:01.041Z,95.70
2019-04-10T04:11:05.256Z,100.45
2019-04-10T04:12:10.530Z,97.12
2019-04-10T04:13:15.306Z,103.17
2019-04-10T04:14:19.993Z,97.55
2019-04-10T04:15:24.308Z,96.45
2019-04-10T04:16:28.496Z,93.90
2019-04-10T04:17:32.582Z,94.13
2019-04-10T04:18:37.456Z,88.87
2019-04-10T04:19:42.162Z,88.97
2019-04-10T04:20:46.256Z,86.17
2019-04-10T04:21:50.519Z,94.97
2019-04-10T04:22:54.888Z,92.22
2019-04-10T04:23:59.409Z,89.55
2019-04-10T04:25:04.489Z,84.07
2019-04-10T04:26:09.024Z,87.78
2019-04-10T04:27:13.256Z,88.47
2019-04-10T04:28:17.446Z,88.45
2019-04-10T04:29:22.636Z,90.20
2019-04-10T04:30:26.881Z,85.50
2019-04-10T04:31:31.238Z,89.32
2019-04-10T04:32:35.100Z,89.90
2019-04-10T04:33:39.344Z,83.80
2019-04-10T04:34:43.743Z,83.62
2019-04-10T04:35:47.598Z,93.25
2019-04-10T04:36:51.732Z,91.53
2019-04-10T04:37:55.731Z,88.78
2019-04-10T04:39:00.019Z,97.90
2019-04-10T04:40:05.936Z,91.22
2019-04-10T04:41:09.793Z,91.92
2019-04-10T04:42:14.907Z,89.07
2019-04-10T04:43:18.787Z,91.20
2019-04-10T04:44:22.882Z,91.30
2019-04-10T04:45:27.819Z,89.50
2019-04-10T04:46:32.438Z,86.22
2019-04-10T04:47:36.955Z,87.62
2019-04-10T04:48:41.424Z,88.50
2019-04-10T04:49:46.745Z,88.72
2019-04-10T04:50:52.222Z,88.92
2019-04-10T04:51:56.305Z,94.52
2019-04-10T04:53:00.474Z,92.70
2019-04-10T04:54:06.599Z,90.67
2019-04-10T04:55:10.714Z,94.65
2019-04-10T04:56:15.736Z,97.27
2019-04-10T04:57:20.485Z,95.30
2019-04-10T04:58:24.706Z,96.45
2019-04-10T04:59:28.876Z,90.60
2019-04-10T05:00:32.720Z,93.07
2019-04-10T05:01:38.394Z,89.40
2019-04-10T05:02:42.701Z,92.20
2019-04-10T05:03:46.995Z,91.75
2019-04-10T05:04:51.717Z,91.30
2019-04-10T05:05:56.212Z,87.65
2019-04-10T05:07:00.718Z,83.12
2019-04-10T05:08:06.856Z,91.12
2019-04-10T05:09:11.252Z,89.95
2019-04-10T05:10:15.532Z,86.37
2019-04-10T05:11:20.520Z,85.72
2019-04-10T05:12:25.541Z,86.35
2019-04-10T05:13:31.186Z,91.78
2019-04-10T05:14:35.719Z,91.32
2019-04-10T05:15:40.838Z,87.50
2019-04-10T05:16:45.711Z,84.35
2019-04-10T05:17:49.633Z,85.20
2019-04-10T05:18:54.764Z,83.62
2019-04-10T05:19:59.104Z,82.53
2019-04-10T05:21:03.446Z,85.17
2019-04-10T05:22:08.048Z,78.90
2019-04-10T05:23:12.307Z,82.02
2019-04-10T05:24:16.407Z,85.28
2019-04-10T05:25:21.112Z,82.08
2019-04-10T05:26:25.730Z,85.35
2019-04-10T05:27:30.928Z,80.77
2019-04-10T05:28:36.105Z,82.20
2019-04-10T05:29:40.883Z,80.20
2019-04-10T05:30:45.319Z,85.35
2019-04-10T05:31:49.431Z,80.77
2019-04-10T05:32:54.151Z,79.47
2019-04-10T05:33:58.412Z,80.45
2019-04-10T05:35:05.190Z,81.10
2019-04-10T05:36:08.955Z,79.32
2019-04-10T05:37:13.576Z,77.65
2019-04-10T05:38:18.728Z,77.55
2019-04-10T05:39:22.990Z,78.87
2019-04-10T05:40:28.031Z,75.50
2019-04-10T05:41:31.909Z,79.55
2019-04-10T05:42:37.399Z,82.37
2019-04-10T05:43:42.579Z,78.95
2019-04-10T05:44:46.559Z,81.85
2019-04-10T05:45:51.006Z,78.55
2019-04-10T05:46:54.939Z,76.35
2019-04-10T05:47:59.046Z,81.37
2019-04-10T05:49:04.453Z,82.95
2019-04-10T05:50:09.137Z,85.03
2019-04-10T05:51:12.989Z,80.57
2019-04-10T05:52:16.835Z,78.12
2019-04-10T05:53:22.552Z,80.28
2019-04-10T05:54:27.004Z,78.65
2019-04-10T05:55:31.303Z,81.35
2019-04-10T05:56:36.352Z,78.65
2019-04-10T05:57:40.932Z,81.35
2019-04-10T05:58:46.926Z,78.33
2019-04-10T05:59:50.424Z,73.25
2019-04-10T06:00:56.756Z,54.90
2019-04-10T06:02:01.124Z,51.23
2019-04-10T06:03:06.207Z,49.93
2019-04-10T06:04:11.287Z,44.35
2019-04-10T06:05:16.213Z,41.85
2019-04-10T06:06:20.840Z,41.75
2019-04-10T06:07:25.283Z,43.68
2019-04-10T06:08:29.471Z,42.58
2019-04-10T06:09:33.804Z,44.45
2019-04-10T06:10:37.995Z,46.58
2019-04-10T06:11:44.041Z,48.73
2019-04-10T06:12:48.763Z,48.90
2019-04-10T06:13:52.921Z,48.33
2019-04-10T06:14:57.256Z,48.30
2019-04-10T06:16:01.579Z,42.67
2019-04-10T06:17:06.045Z,43.95
2019-04-10T06:18:11.093Z,42.25
2019-04-10T06:19:15.869Z,41.05
2019-04-10T06:20:20.936Z,40.12
2019-04-10T06:21:25.166Z,43.00
2019-04-10T06:22:30.162Z,36.65
2019-04-10T06:23:35.797Z,40.48
2019-04-10T06:24:40.529Z,39.80
2019-04-10T06:25:45.814Z,41.90
2019-04-10T06:26:50.209Z,40.38
2019-04-10T06:27:54.349Z,52.55
2019-04-10T06:28:58.960Z,50.85
2019-04-10T06:30:03.685Z,50.43
2019-04-10T06:31:08.305Z,47.33
2019-04-10T06:32:13.520Z,41.98
2019-04-10T06:33:18.007Z,39.25
2019-04-10T06:34:22.684Z,36.00
2019-04-10T06:35:28.213Z,33.08
2019-04-10T06:36:33.421Z,41.80
2019-04-10T06:37:38.100Z,42.27
2019-04-10T06:38:43.319Z,42.80
2019-04-10T06:40:05.889Z,35.50
2019-04-10T06:41:02.069Z,33.02
2019-04-10T06:42:06.597Z,31.75
2019-04-10T06:43:10.928Z,34.00
2019-04-10T06:44:15.194Z,35.78
2019-04-10T06:45:19.864Z,34.03
2019-04-10T06:46:24.340Z,34.65
2019-04-10T06:47:28.945Z,33.88
2019-04-10T06:48:34.215Z,32.42
2019-04-10T06:49:38.669Z,29.52
2019-04-10T06:50:43.208Z,31.70
2019-04-10T06:51:49.395Z,37.83
2019-04-10T06:52:54.605Z,34.70
2019-04-10T06:54:04.934Z,31.75
2019-04-10T06:55:05.097Z,29.25
2019-04-10T06:56:09.891Z,31.97
2019-04-10T06:57:14.608Z,34.18
2019-04-10T06:58:18.771Z,33.45
2019-04-10T06:59:23.481Z,34.35
2019-04-10T07:00:28.503Z,46.08
2019-04-10T07:01:40.519Z,34.05
2019-04-10T07:02:38.854Z,32.15
2019-04-10T07:03:52.766Z,35.40
2019-04-10T07:04:54.223Z,31.45
2019-04-10T07:06:06.224Z,37.20
2019-04-10T07:07:06.275Z,34.20
2019-04-10T07:08:13.442Z,31.35
2019-04-10T07:09:15.808Z,29.85
2019-04-10T07:10:27.287Z,27.87
2019-04-10T07:11:30.481Z,36.50
2019-04-10T07:12:33.982Z,31.90
2019-04-10T07:13:39.967Z,30.95
2019-04-10T07:14:46.276Z,30.17
2019-04-10T07:15:49.789Z,30.70
2019-04-10T07:16:54.885Z,29.52
2019-04-10T07:17:58.894Z,30.45
2019-04-10T07:19:04.808Z,30.50
2019-04-10T07:20:09.556Z,29.23
2019-04-10T07:21:14.681Z,26.60
2019-04-10T07:22:18.744Z,30.57
2019-04-10T07:23:27.495Z,30.15
2019-04-10T07:24:29.224Z,27.70
2019-04-10T07:25:33.522Z,32.48
2019-04-10T07:26:42.196Z,31.05
2019-04-10T07:27:44.079Z,29.82
2019-04-10T07:28:50.078Z,31.93
2019-04-10T07:29:57.631Z,32.83
2019-04-10T07:31:04.643Z,30.95
2019-04-10T07:32:08.675Z,31.70
2019-04-10T07:33:14.841Z,28.87
2019-04-10T07:34:20.079Z,32.23
2019-04-10T07:35:23.734Z,31.05
2019-04-10T07:36:28.696Z,29.50
2019-04-10T07:37:33.967Z,31.87
2019-04-10T07:38:39.193Z,31.35
2019-04-10T07:39:44.768Z,29.45
2019-04-10T07:40:49.552Z,30.75
2019-04-10T07:41:53.710Z,35.20
2019-04-10T07:42:58.721Z,29.50
2019-04-10T07:44:03.740Z,38.17
2019-04-10T07:45:10.048Z,29.12
2019-04-10T07:46:15.203Z,29.23
2019-04-10T07:47:19.607Z,28.65
2019-04-10T07:48:25.226Z,30.08
2019-04-10T07:49:31.240Z,28.77
2019-04-10T07:50:35.091Z,31.95
2019-04-10T07:51:39.012Z,29.95
2019-04-10T07:52:43.724Z,30.95
2019-04-10T07:53:47.792Z,30.30
2019-04-10T07:54:52.422Z,30.02
2019-04-10T07:56:05.318Z,29.87
2019-04-10T07:57:02.486Z,32.05
2019-04-10T07:58:06.907Z,28.92
2019-04-10T07:59:10.988Z,27.90
2019-04-10T08:00:16.728Z,26.90
2019-04-10T08:01:20.710Z,29.63
2019-04-10T08:02:25.527Z,30.35
2019-04-10T08:03:29.459Z,28.27
2019-04-10T08:04:33.650Z,26.05
2019-04-10T08:05:37.959Z,24.90
2019-04-10T08:06:42.445Z,31.05
2019-04-10T08:07:47.301Z,24.45
2019-04-10T08:08:51.485Z,25.92
2019-04-10T08:09:55.346Z,24.07
2019-04-10T08:10:59.701Z,24.23
2019-04-10T08:12:05.049Z,31.12
2019-04-10T08:13:09.369Z,30.90
2019-04-10T08:14:13.385Z,22.90
2019-04-10T08:15:17.447Z,25.00
2019-04-10T08:16:21.753Z,23.40
2019-04-10T08:17:26.302Z,23.50
2019-04-10T08:18:31.712Z,25.15
2019-04-10T08:19:35.620Z,24.50
2019-04-10T08:20:40.326Z,25.27
2019-04-10T08:21:44.728Z,24.92
2019-04-10T08:22:49.010Z,24.10
2019-04-10T08:23:54.797Z,23.40
2019-04-10T08:24:58.765Z,25.40
2019-04-10T08:26:03.588Z,27.17
2019-04-10T08:27:07.963Z,26.70
2019-04-10T08:28:11.976Z,21.68
2019-04-10T08:29:16.210Z,24.77
2019-04-10T08:30:20.524Z,21.80
2019-04-10T08:31:25.314Z,22.90
2019-04-10T08:32:30.039Z,23.57
2019-04-10T08:33:35.018Z,26.73
2019-04-10T08:34:39.952Z,21.90
2019-04-10T08:35:45.448Z,27.67
2019-04-10T08:36:51.543Z,27.67
2019-04-10T08:37:55.422Z,21.42
2019-04-10T08:38:59.416Z,20.72
2019-04-10T08:40:03.552Z,22.58
2019-04-10T08:41:08.690Z,22.58
2019-04-10T08:42:12.831Z,22.13
2019-04-10T08:43:17.037Z,25.50
2019-04-10T08:44:22.233Z,26.27
2019-04-10T08:45:35.764Z,23.77
2019-04-10T08:46:31.831Z,24.35
2019-04-10T08:47:35.827Z,27.45
2019-04-10T08:48:39.674Z,24.90
2019-04-10T08:49:43.519Z,26.87
2019-04-10T08:50:47.520Z,27.15
2019-04-10T08:51:52.154Z,24.40
2019-04-10T08:52:56.419Z,24.43
2019-04-10T08:54:00.653Z,20.97
2019-04-10T08:55:05.984Z,22.15
2019-04-10T08:56:10.723Z,20.62
2019-04-10T08:57:14.987Z,21.17
2019-04-10T08:58:19.297Z,22.75
2019-04-10T08:59:23.710Z,22.20
2019-04-10T09:00:28.950Z,21.42
2019-04-10T09:01:33.527Z,21.02
2019-04-10T09:02:38.186Z,21.55
2019-04-10T09:03:43.308Z,22.25
2019-04-10T09:04:48.897Z,20.17
2019-04-10T09:05:53.192Z,22.37
2019-04-10T09:06:58.238Z,24.75
2019-04-10T09:08:03.109Z,24.05
2019-04-10T09:09:08.054Z,20.55
2019-04-10T09:10:12.372Z,20.92
2019-04-10T09:11:25.573Z,20.37
2019-04-10T09:12:22.365Z,20.32
2019-04-10T09:13:26.981Z,28.52
2019-04-10T09:14:30.913Z,22.82
2019-04-10T09:15:36.051Z,23.27
2019-04-10T09:16:40.176Z,19.95
2019-04-10T09:17:44.641Z,20.65
2019-04-10T09:18:49.491Z,18.40
2019-04-10T09:19:54.076Z,19.57
2019-04-10T09:20:59.318Z,17.15
2019-04-10T09:22:03.835Z,18.87
2019-04-10T09:23:18.677Z,24.15
2019-04-10T09:24:15.194Z,17.92
2019-04-10T09:25:19.690Z,20.00
2019-04-10T09:26:24.493Z,21.87
2019-04-10T09:27:28.976Z,21.27
2019-04-10T09:28:33.131Z,19.65
2019-04-10T09:29:38.262Z,21.62
2019-04-10T09:30:42.747Z,19.52
2019-04-10T09:31:48.114Z,22.55
2019-04-10T09:32:52.775Z,21.07
2019-04-10T09:33:57.079Z,19.82
2019-04-10T09:35:02.478Z,18.85
2019-04-10T09:36:06.908Z,19.95
2019-04-10T09:37:11.180Z,23.52
2019-04-10T09:38:16.677Z,18.90
2019-04-10T09:39:20.760Z,17.77
2019-04-10T09:40:25.027Z,24.70
2019-04-10T09:41:30.024Z,17.40
2019-04-10T09:42:33.870Z,20.48
2019-04-10T09:43:38.061Z,22.15
2019-04-10T09:44:42.314Z,20.20
2019-04-10T09:45:46.459Z,21.00
2019-04-10T09:46:51.682Z,18.12
2019-04-10T09:47:56.351Z,18.57
2019-04-10T09:49:00.622Z,22.25
2019-04-10T09:50:06.018Z,24.82
2019-04-10T09:51:09.945Z,22.27
2019-04-10T09:52:14.555Z,19.10
2019-04-10T09:53:19.060Z,17.62
2019-04-10T09:54:24.004Z,17.45
2019-04-10T09:55:28.164Z,17.60
2019-04-10T09:56:32.325Z,18.95
2019-04-10T09:57:36.890Z,18.92
2019-04-10T09:58:41.278Z,19.42
2019-04-10T09:59:46.064Z,21.55
2019-04-10T10:00:50.964Z,19.42
2019-04-10T10:01:55.399Z,22.95
2019-04-10T10:03:01.425Z,19.50
2019-04-10T10:04:05.539Z,18.90
2019-04-10T10:05:10.485Z,18.32
2019-04-10T10:06:25.251Z,21.07
2019-04-10T10:07:20.900Z,22.22
2019-04-10T10:08:25.361Z,18.12
2019-04-10T10:09:30.677Z,18.52
2019-04-10T10:10:36.765Z,21.55
2019-04-10T10:11:40.246Z,19.92
2019-04-10T10:12:44.986Z,18.62
2019-04-10T10:13:48.830Z,19.48
2019-04-10T10:14:53.881Z,18.23
2019-04-10T10:15:58.699Z,22.50
2019-04-10T10:17:04.263Z,19.40
2019-04-10T10:18:08.888Z,19.30
2019-04-10T10:19:14.194Z,20.48
2019-04-10T10:20:19.672Z,18.25
2019-04-10T10:21:24.144Z,19.98
2019-04-10T10:22:29.352Z,19.65
2019-04-10T10:23:33.958Z,15.68
2019-04-10T10:24:38.741Z,20.40
2019-04-10T10:25:43.696Z,14.30
2019-04-10T10:26:48.048Z,16.23
2019-04-10T10:27:52.034Z,18.98
2019-04-10T10:28:56.520Z,19.65
2019-04-10T10:30:02.092Z,19.73
2019-04-10T10:31:06.317Z,16.90
2019-04-10T10:32:10.926Z,22.07
2019-04-10T10:33:15.463Z,16.48
2019-04-10T10:34:20.630Z,14.95
2019-04-10T10:35:25.475Z,16.10
2019-04-10T10:36:36.707Z,15.32
2019-04-10T10:37:35.315Z,17.80
2019-04-10T10:38:39.640Z,17.92
2019-04-10T10:39:45.164Z,14.63
2019-04-10T10:40:49.430Z,17.35
2019-04-10T10:41:54.332Z,16.60
2019-04-10T10:42:58.614Z,15.70
2019-04-10T10:44:03.267Z,16.67
2019-04-10T10:45:07.809Z,19.42
2019-04-10T10:46:12.054Z,17.40
2019-04-10T10:47:16.055Z,20.12
2019-04-10T10:48:20.391Z,15.65
2019-04-10T10:49:24.408Z,20.70
2019-04-10T10:50:29.015Z,19.25
2019-04-10T10:51:33.223Z,16.37
2019-04-10T10:52:37.625Z,18.35
2019-04-10T10:53:41.933Z,17.23
2019-04-10T10:54:46.999Z,15.03
2019-04-10T10:55:51.189Z,17.52
2019-04-10T10:56:55.439Z,16.10
2019-04-10T10:57:59.690Z,15.48
2019-04-10T10:59:03.741Z,14.60
2019-04-10T11:00:12.814Z,17.82
2019-04-10T11:01:15.803Z,15.25
2019-04-10T11:02:21.250Z,14.93
2019-04-10T11:03:25.159Z,15.80
2019-04-10T11:04:29.678Z,17.65
2019-04-10T11:05:35.001Z,17.20
2019-04-10T11:06:52.580Z,20.48
2019-04-10T11:07:45.449Z,18.92
2019-04-10T11:08:49.634Z,18.23
2019-04-10T11:09:54.381Z,16.75
2019-04-10T11:10:59.379Z,16.97
2019-04-10T11:12:06.569Z,14.63
2019-04-10T11:13:10.955Z,17.02
2019-04-10T11:14:15.594Z,16.17
2019-04-10T11:15:20.157Z,17.23
2019-04-10T11:16:24.860Z,16.48
2019-04-10T11:17:29.711Z,18.85
2019-04-10T11:18:35.264Z,15.75
2019-04-10T11:19:39.862Z,16.70
2019-04-10T11:20:43.983Z,15.03
2019-04-10T11:21:49.525Z,15.25
2019-04-10T11:22:53.985Z,13.40
2019-04-10T11:23:58.425Z,19.40
2019-04-10T11:25:03.547Z,16.23
2019-04-10T11:26:08.438Z,16.75
2019-04-10T11:27:14.228Z,15.13
2019-04-10T11:28:20.594Z,17.27
2019-04-10T11:29:25.186Z,16.32
2019-04-10T11:30:29.557Z,21.82
2019-04-10T11:31:33.871Z,16.45
2019-04-10T11:32:38.318Z,14.65
2019-04-10T11:33:43.850Z,17.32
2019-04-10T11:34:49.337Z,17.50
2019-04-10T11:35:55.130Z,14.53
2019-04-10T11:37:16.620Z,13.98
2019-04-10T11:38:06.000Z,18.45
2019-04-10T11:40:18.042Z,16.30
2019-04-10T11:41:23.337Z,15.58
2019-04-10T11:42:28.969Z,21.57
2019-04-10T11:43:35.737Z,16.50
2019-04-10T11:44:41.725Z,15.68
2019-04-10T11:45:51.625Z,18.55
2019-04-10T11:46:52.688Z,15.00
2019-04-10T11:47:56.547Z,15.15
2019-04-10T11:49:00.981Z,19.15
2019-04-10T11:50:09.130Z,16.48
2019-04-10T11:51:13.262Z,14.10
2019-04-10T11:52:24.440Z,15.88
2019-04-10T11:53:24.019Z,14.40
2019-04-10T11:54:31.976Z,19.17
2019-04-10T11:56:40.228Z,15.80
2019-04-10T11:58:55.848Z,22.00
2019-04-10T11:59:57.699Z,16.37
2019-04-10T12:01:07.042Z,16.40
2019-04-10T12:02:10.076Z,17.77
2019-04-10T12:03:15.997Z,15.10
2019-04-10T12:04:20.744Z,21.77
2019-04-10T12:05:25.840Z,17.40
2019-04-10T12:06:32.985Z,18.50
2019-04-10T12:08:06.089Z,20.73
2019-04-10T12:09:12.213Z,15.85
2019-04-10T12:12:01.540Z,15.83
2019-04-10T12:13:06.029Z,18.60
2019-04-10T12:14:11.102Z,18.60
2019-04-10T12:15:17.136Z,16.93
2019-04-10T12:16:21.165Z,14.67
2019-04-10T12:17:25.631Z,20.20
2019-04-10T12:18:30.789Z,16.37
2019-04-10T12:19:36.166Z,17.10
2019-04-10T12:20:41.338Z,17.87
2019-04-10T12:21:47.385Z,18.40
2019-04-10T12:22:52.465Z,14.87
2019-04-10T12:23:56.951Z,20.10
2019-04-10T12:25:00.835Z,19.00
2019-04-10T12:26:05.168Z,18.17
2019-04-10T12:27:09.442Z,14.93
2019-04-10T12:28:13.812Z,15.73
2019-04-10T12:29:18.370Z,14.27
2019-04-10T12:30:23.525Z,15.33
2019-04-10T12:31:28.351Z,16.63
2019-04-10T12:32:32.602Z,14.20
2019-04-10T12:33:38.005Z,15.27
2019-04-10T12:34:42.485Z,17.47
2019-04-10T12:35:47.744Z,18.97
2019-04-10T12:36:53.321Z,16.17
2019-04-10T12:38:02.843Z,20.63
2019-04-10T12:39:05.966Z,18.97
2019-04-10T12:40:11.837Z,18.33
2019-04-10T12:41:15.718Z,17.30
2019-04-10T12:42:19.999Z,16.33
2019-04-10T12:43:25.783Z,17.37
2019-04-10T12:44:30.470Z,17.17
2019-04-10T12:45:36.048Z,15.72
2019-04-10T12:46:41.421Z,17.60
2019-04-10T12:47:46.033Z,16.50
2019-04-10T12:48:50.684Z,15.37
2019-04-10T12:49:54.646Z,17.73
2019-04-10T12:50:58.567Z,18.30
2019-04-10T12:52:02.526Z,18.67
2019-04-10T12:53:07.408Z,17.53
2019-04-10T12:54:12.188Z,18.50
2019-04-10T12:55:16.497Z,20.93
2019-04-10T12:56:20.619Z,15.57
2019-04-10T12:57:24.985Z,22.23
2019-04-10T12:58:29.236Z,17.80
2019-04-10T12:59:33.436Z,17.77
2019-04-10T13:00:38.148Z,19.13
2019-04-10T13:01:42.268Z,17.10
2019-04-10T13:02:47.026Z,21.30
2019-04-10T13:03:51.601Z,17.93
2019-04-10T13:04:56.619Z,17.70
2019-04-10T13:06:01.871Z,20.23
2019-04-10T13:07:07.376Z,19.83
2019-04-10T13:08:20.463Z,18.83
2019-04-10T13:09:17.934Z,20.33
2019-04-10T13:10:22.965Z,21.43
2019-04-10T13:11:27.067Z,20.03
2019-04-10T13:12:31.330Z,16.27
2019-04-10T13:13:35.843Z,30.77
2019-04-10T13:14:39.931Z,25.93
2019-04-10T13:15:45.578Z,24.40
2019-04-10T13:16:50.181Z,18.80
2019-04-10T13:17:54.071Z,27.77
2019-04-10T13:18:58.653Z,24.63
2019-04-10T13:20:03.019Z,27.33
2019-04-10T13:21:08.415Z,26.13
2019-04-10T13:22:12.810Z,18.63
2019-04-10T13:23:17.812Z,21.73
2019-04-10T13:24:22.314Z,26.67
2019-04-10T13:25:26.741Z,27.63
2019-04-10T13:26:30.932Z,22.17
2019-04-10T13:27:35.289Z,22.40
2019-04-10T13:28:40.121Z,25.40
2019-04-10T13:29:44.646Z,24.13
2019-04-10T13:30:53.097Z,24.93
2019-04-10T13:31:55.849Z,19.20
2019-04-10T13:33:00.434Z,29.40
2019-04-10T13:34:04.948Z,30.13
2019-04-10T13:35:10.363Z,25.07
2019-04-10T13:36:15.452Z,26.83
2019-04-10T13:37:19.963Z,23.90
2019-04-10T13:38:29.251Z,19.47
2019-04-10T13:39:30.777Z,19.93
2019-04-10T13:40:36.078Z,22.63
2019-04-10T13:41:40.767Z,24.57
2019-04-10T13:42:45.444Z,23.53
2019-04-10T13:43:49.987Z,20.03
2019-04-10T13:44:55.757Z,23.97
2019-04-10T13:46:00.499Z,29.60
2019-04-10T13:47:05.110Z,25.03
2019-04-10T13:48:10.205Z,27.93
2019-04-10T13:49:14.404Z,23.77
2019-04-10T13:50:19.065Z,19.63
2019-04-10T13:51:23.473Z,24.30
2019-04-10T13:52:27.912Z,22.33
2019-04-10T13:53:32.245Z,30.63
2019-04-10T13:54:36.872Z,28.10
2019-04-10T13:55:40.680Z,24.93
2019-04-10T13:56:45.377Z,26.57
2019-04-10T13:57:50.859Z,21.50
2019-04-10T13:58:55.004Z,22.53
2019-04-10T13:59:59.558Z,27.70
2019-04-10T14:01:05.617Z,28.03
2019-04-10T14:02:13.174Z,27.23
2019-04-10T14:03:19.195Z,30.07
2019-04-10T14:04:23.212Z,28.07
2019-04-10T14:05:27.891Z,31.33
2019-04-10T14:06:32.048Z,29.27
2019-04-10T14:07:36.149Z,26.17
2019-04-10T14:08:58.454Z,26.40
2019-04-10T14:09:50.163Z,22.20
2019-04-10T14:10:52.936Z,21.37
2019-04-10T14:11:57.819Z,19.90
2019-04-10T14:13:03.236Z,22.57
2019-04-10T14:14:08.536Z,20.27
2019-04-10T14:15:13.919Z,25.70
2019-04-10T14:16:17.915Z,27.50
2019-04-10T14:17:22.215Z,21.93
2019-04-10T14:18:26.473Z,20.50
2019-04-10T14:19:31.867Z,23.40
2019-04-10T14:20:36.172Z,19.00
2019-04-10T14:21:42.708Z,20.63
2019-04-10T14:23:08.562Z,21.20
2019-04-10T14:24:13.078Z,22.77
2019-04-10T14:25:28.150Z,22.43
2019-04-10T14:26:48.122Z,19.20
2019-04-10T14:27:46.670Z,20.73
2019-04-10T14:28:51.444Z,22.73
2019-04-10T14:29:56.762Z,21.83
2019-04-10T14:31:04.238Z,20.97
2019-04-10T14:32:11.306Z,20.87
2019-04-10T14:33:16.029Z,20.13
2019-04-10T14:34:21.451Z,21.13
2019-04-10T14:35:25.348Z,22.80
2019-04-10T14:36:29.802Z,22.77
2019-04-10T14:37:33.927Z,26.23
2019-04-10T14:38:39.029Z,21.27
2019-04-10T14:40:49.382Z,24.97
2019-04-10T14:41:54.018Z,19.00
2019-04-10T14:42:57.956Z,21.67
2019-04-10T14:44:01.984Z,19.80
2019-04-10T14:45:06.981Z,18.47
2019-04-10T14:46:12.490Z,20.60
2019-04-10T14:47:17.431Z,21.30
2019-04-10T14:48:22.392Z,19.33
2019-04-10T14:49:27.244Z,21.97
2019-04-10T14:50:32.207Z,23.20
2019-04-10T14:51:36.644Z,24.23
2019-04-10T14:52:41.146Z,26.07
2019-04-10T14:53:45.200Z,21.93
2019-04-10T14:54:50.291Z,24.57
2019-04-10T14:55:54.915Z,24.37
2019-04-10T14:56:59.071Z,24.07
2019-04-10T14:58:03.460Z,20.97
2019-04-10T14:59:07.577Z,22.53
2019-04-10T15:00:20.014Z,25.07
2019-04-10T15:01:24.297Z,24.00
2019-04-10T15:02:28.598Z,19.73
2019-04-10T15:03:32.862Z,24.50
2019-04-10T15:04:37.406Z,21.03
2019-04-10T15:05:48.650Z,25.43
2019-04-10T15:06:48.037Z,20.93
2019-04-10T15:07:53.287Z,21.53
2019-04-10T15:08:57.767Z,21.00
2019-04-10T15:10:02.461Z,22.37
2019-04-10T15:11:06.781Z,22.30
2019-04-10T15:12:12.193Z,20.63
2019-04-10T15:13:20.783Z,24.53
2019-04-10T15:14:23.433Z,28.33
2019-04-10T15:15:28.183Z,22.77
2019-04-10T15:16:33.547Z,23.57
2019-04-10T15:17:38.091Z,24.23
2019-04-10T15:18:42.032Z,27.93
2019-04-10T15:19:46.905Z,26.90
2019-04-10T15:20:52.319Z,25.07
2019-04-10T15:21:56.439Z,23.80
2019-04-10T15:23:01.037Z,25.13
2019-04-10T15:24:05.042Z,21.20
2019-04-10T15:25:09.042Z,25.33
2019-04-10T15:26:13.709Z,31.30
2019-04-10T15:27:18.055Z,27.13
2019-04-10T15:28:23.250Z,22.07
2019-04-10T15:29:28.103Z,31.50
2019-04-10T15:30:32.832Z,27.27
2019-04-10T15:31:37.706Z,35.27
2019-04-10T15:32:42.223Z,46.17
2019-04-10T15:33:46.734Z,32.23
2019-04-10T15:34:51.561Z,23.60
2019-04-10T15:35:55.764Z,29.73
2019-04-10T15:37:00.506Z,25.00
2019-04-10T15:38:06.156Z,24.33
2019-04-10T15:39:10.658Z,25.50
2019-04-10T15:40:20.836Z,26.83
2019-04-10T15:41:21.296Z,22.57
2019-04-10T15:42:25.952Z,27.90
2019-04-10T15:43:30.219Z,23.27
2019-04-10T15:44:34.463Z,26.43
2019-04-10T15:45:38.496Z,29.27
2019-04-10T15:46:43.499Z,33.83
2019-04-10T15:47:52.511Z,21.73
2019-04-10T15:48:55.010Z,23.37
2019-04-10T15:49:59.863Z,24.07
2019-04-10T15:51:04.214Z,30.90
2019-04-10T15:52:08.135Z,24.40
2019-04-10T15:53:12.847Z,24.27
2019-04-10T15:54:18.047Z,29.10
2019-04-10T15:55:22.131Z,30.53
2019-04-10T15:56:27.651Z,29.50
2019-04-10T15:57:44.248Z,27.90
2019-04-10T15:58:37.430Z,28.00
2019-04-10T15:59:41.387Z,25.63
2019-04-10T16:00:45.795Z,27.80
2019-04-10T16:01:51.065Z,28.23
2019-04-10T16:02:55.366Z,28.27
2019-04-10T16:04:01.137Z,28.27
2019-04-10T16:05:07.081Z,26.23
2019-04-10T16:06:11.360Z,28.17
2019-04-10T16:07:16.116Z,27.67
2019-04-10T16:08:20.507Z,30.67
2019-04-10T16:09:25.322Z,30.43
2019-04-10T16:10:51.536Z,29.73
2019-04-10T16:12:00.587Z,28.90